Time;durP1;ratioP1;P1;durP2;ratioP2;P2;SDS_P1;SDS_P2;PMS_P1;PMS_P2;Temp;Humidity;BMP_temperature;BMP_pressure;BME280_temperature;BME280_humidity;BME280_pressure;Samples;Min_cycle;Max_cycle;Signal;HPM_P1;HPM_P2
2022/06/21 00:00:06;;;;;;;;;;;20.80;56.00;;;;;;5169824;27;20378;-46
2022/06/21 00:02:32;;;;;;;;;;;21.60;54.50;;;;;;5163909;27;19923;-47
2022/06/21 00:04:58;;;;;;;;;;;21.20;53.40;;;;;;5143678;27;19982;-46
2022/06/21 00:07:24;;;;;;;;;;;20.30;53.30;;;;;;5167889;27;19923;-52
2022/06/21 00:09:50;;;;;;;;;;;19.90;52.70;;;;;;5163401;27;19923;-46
2022/06/21 00:12:16;;;;;;;;;;;19.80;51.70;;;;;;5165167;27;19945;-55
2022/06/21 00:14:42;;;;;;;;;;;19.70;52.90;;;;;;5167661;27;19927;-46
2022/06/21 00:17:15;;;;;;;;;;;20.60;55.60;;;;;;5163730;27;19927;-49
2022/06/21 00:19:43;;;;;;;;;;;21.30;54.80;;;;;;5169077;27;19926;-46
2022/06/21 00:22:12;;;;;;;;;;;21.30;53.50;;;;;;5163510;27;19937;-48
2022/06/21 00:24:37;;;;;;;;;;;20.30;53.50;;;;;;5142736;27;19937;-46
2022/06/21 00:27:04;;;;;;;;;;;19.90;52.70;;;;;;5168284;27;19931;-46
2022/06/21 00:29:30;;;;;;;;;;;19.80;51.70;;;;;;5163045;27;20386;-45
2022/06/21 00:31:56;;;;;;;;;;;20.40;55.70;;;;;;5163378;27;19934;-47
2022/06/21 00:34:21;;;;;;;;;;;21.30;55.10;;;;;;5168645;27;20373;-46
2022/06/21 00:36:47;;;;;;;;;;;21.60;53.20;;;;;;5144034;27;20431;-46
2022/06/21 00:39:14;;;;;;;;;;;20.50;53.40;;;;;;5168433;27;19923;-49
2022/06/21 00:41:53;;;;;;;;;;;19.90;53.00;;;;;;5141768;27;20106;-47
2022/06/21 00:44:20;;;;;;;;;;;20.10;51.70;;;;;;5161657;27;19933;-49
2022/06/21 00:46:47;;;;;;;;;;;20.40;55.40;;;;;;5131105;27;20299;-48
2022/06/21 00:49:16;;;;;;;;;;;21.20;54.90;;;;;;5162808;27;20059;-45
2022/06/21 00:51:42;;;;;;;;;;;21.60;53.20;;;;;;5163144;27;19929;-46
2022/06/21 00:54:14;;;;;;;;;;;20.50;53.40;;;;;;5168446;27;19922;-45
2022/06/21 00:56:41;;;;;;;;;;;20.00;52.50;;;;;;5162808;27;19926;-48
2022/06/21 00:59:17;;;;;;;;;;;19.90;51.80;;;;;;5144117;27;20106;-45
2022/06/21 01:01:42;;;;;;;;;;;19.90;52.40;;;;;;5146193;27;19931;-46
2022/06/21 01:04:16;;;;;;;;;;;20.80;55.20;;;;;;5162165;27;19923;-46
2022/06/21 01:06:43;;;;;;;;;;;21.60;53.50;;;;;;5158326;27;19923;-47
2022/06/21 01:09:11;;;;;;;;;;;21.20;52.40;;;;;;5149245;27;20013;-46
2022/06/21 01:11:48;;;;;;;;;;;20.50;52.30;;;;;;5143497;27;19927;-47
2022/06/21 01:14:14;;;;;;;;;;;20.00;52.00;;;;;;5145489;27;19971;-55
2022/06/21 01:16:40;;;;;;;;;;;19.80;51.50;;;;;;5167352;27;20416;-49
2022/06/21 01:19:11;;;;;;;;;;;20.50;55.20;;;;;;5163821;27;19930;-46
2022/06/21 01:21:37;;;;;;;;;;;21.40;53.70;;;;;;5152742;27;19927;-48
2022/06/21 01:24:11;;;;;;;;;;;21.30;52.30;;;;;;5146350;27;20339;-47
2022/06/21 01:26:51;;;;;;;;;;;20.50;52.30;;;;;;5147431;27;19934;-45
2022/06/21 01:29:18;;;;;;;;;;;20.00;51.90;;;;;;5153737;27;19986;-45
2022/06/21 01:31:44;;;;;;;;;;;19.90;51.00;;;;;;5166902;27;19922;-47
2022/06/21 01:34:14;;;;;;;;;;;20.30;54.60;;;;;;5166619;27;19985;-46
2022/06/21 01:36:41;;;;;;;;;;;21.30;53.70;;;;;;5171055;27;20022;-48
2022/06/21 01:39:29;;;;;;;;;;;21.50;52.00;;;;;;5165199;27;19923;-47
2022/06/21 01:42:03;;;;;;;;;;;20.30;52.70;;;;;;5152395;27;19930;-47
2022/06/21 01:44:30;;;;;;;;;;;20.10;51.60;;;;;;5153555;27;19929;-46
2022/06/21 01:46:56;;;;;;;;;;;19.80;51.00;;;;;;5148175;27;20017;-47
2022/06/21 01:49:23;;;;;;;;;;;20.30;54.70;;;;;;5166642;27;19922;-46
2022/06/21 01:51:51;;;;;;;;;;;21.20;53.50;;;;;;5172040;27;19936;-47
2022/06/21 01:54:17;;;;;;;;;;;21.60;51.70;;;;;;5166394;27;19929;-48
2022/06/21 01:56:43;;;;;;;;;;;20.40;52.20;;;;;;5149200;27;19966;-56
2022/06/21 01:59:25;;;;;;;;;;;20.00;52.00;;;;;;5149123;27;20041;-47
2022/06/21 02:01:52;;;;;;;;;;;19.90;51.30;;;;;;5166210;27;20073;-46
2022/06/21 02:04:20;;;;;;;;;;;20.30;54.30;;;;;;5171682;27;19930;-46
2022/06/21 02:06:45;;;;;;;;;;;21.30;53.10;;;;;;5147589;27;20350;-46
2022/06/21 02:09:14;;;;;;;;;;;21.70;51.30;;;;;;5166296;27;19927;-45
2022/06/21 02:11:44;;;;;;;;;;;20.60;51.80;;;;;;5152801;27;19926;-48
2022/06/21 02:14:30;;;;;;;;;;;20.10;51.60;;;;;;5164108;27;20281;-46
2022/06/21 02:16:58;;;;;;;;;;;19.70;51.40;;;;;;5165086;27;19936;-45
2022/06/21 02:19:26;;;;;;;;;;;19.80;53.50;;;;;;5170796;27;19923;-45
2022/06/21 02:21:52;;;;;;;;;;;20.90;53.70;;;;;;5147047;27;20399;-47
2022/06/21 02:24:17;;;;;;;;;;;21.80;51.60;;;;;;5165620;27;19970;-47
2022/06/21 02:26:43;;;;;;;;;;;20.80;51.90;;;;;;5152794;27;19927;-47
2022/06/21 02:29:09;;;;;;;;;;;20.10;51.80;;;;;;5165591;27;20006;-47
2022/06/21 02:31:35;;;;;;;;;;;19.90;51.10;;;;;;5148695;27;19922;-57
2022/06/21 02:34:01;;;;;;;;;;;19.80;50.60;;;;;;5166895;27;19923;-47
2022/06/21 02:36:28;;;;;;;;;;;20.50;53.70;;;;;;5145107;27;19923;-46
2022/06/21 02:38:55;;;;;;;;;;;21.30;52.40;;;;;;5170918;27;19929;-46
2022/06/21 02:41:21;;;;;;;;;;;21.40;50.90;;;;;;5165753;27;19929;-48
2022/06/21 02:43:48;;;;;;;;;;;20.30;51.70;;;;;;5165410;27;20358;-50
2022/06/21 02:46:16;;;;;;;;;;;20.00;51.20;;;;;;5152362;27;19922;-50
2022/06/21 02:49:01;;;;;;;;;;;19.80;50.70;;;;;;5146654;27;19929;-49
2022/06/21 02:51:29;;;;;;;;;;;20.30;53.70;;;;;;5163171;27;20289;-46
2022/06/21 02:54:02;;;;;;;;;;;21.30;52.00;;;;;;5169868;27;19944;-47
2022/06/21 02:56:33;;;;;;;;;;;21.40;50.90;;;;;;5146148;27;20300;-46
2022/06/21 02:59:00;;;;;;;;;;;20.20;51.80;;;;;;5145353;27;20647;-48
2022/06/21 03:01:34;;;;;;;;;;;19.90;51.10;;;;;;5170474;27;19923;-49
2022/06/21 03:04:00;;;;;;;;;;;19.70;51.50;;;;;;5165053;27;19985;-46
2022/06/21 03:06:26;;;;;;;;;;;20.70;53.20;;;;;;5167567;27;20009;-55
2022/06/21 03:08:56;;;;;;;;;;;21.50;51.50;;;;;;5130653;27;19986;-56
2022/06/21 03:11:22;;;;;;;;;;;21.90;49.90;;;;;;5163886;27;19982;-56
2022/06/21 03:13:49;;;;;;;;;;;21.80;47.90;;;;;;5151261;27;19945;-55
2022/06/21 03:16:18;;;;;;;;;;;22.00;46.60;;;;;;5164654;27;20433;-57
2022/06/21 03:18:51;;;;;;;;;;;22.00;45.70;;;;;;5164955;27;20399;-57
2022/06/21 03:21:19;;;;;;;;;;;22.10;45.00;;;;;;5170377;27;20433;-55
2022/06/21 03:23:44;;;;;;;;;;;22.20;44.70;;;;;;5144269;27;19933;-56
2022/06/21 03:26:10;;;;;;;;;;;22.20;44.50;;;;;;5164550;27;20185;-57
2022/06/21 03:28:37;;;;;;;;;;;22.30;44.40;;;;;;5148778;27;20320;-57
2022/06/21 03:31:12;;;;;;;;;;;22.30;44.00;;;;;;5163915;27;19966;-55
2022/06/21 03:33:39;;;;;;;;;;;22.40;43.80;;;;;;5164276;27;20002;-58
2022/06/21 03:36:06;;;;;;;;;;;22.40;43.70;;;;;;5169862;27;19934;-56
2022/06/21 03:38:32;;;;;;;;;;;22.30;43.80;;;;;;5164438;27;19976;-57
2022/06/21 03:43:43;;;;;;;;;;;22.30;43.80;;;;;;5167383;27;19927;-56
2022/06/21 03:46:10;;;;;;;;;;;22.20;43.70;;;;;;5143357;27;19923;-54
2022/06/21 03:48:42;;;;;;;;;;;21.30;45.30;;;;;;5168836;27;20019;-58
2022/06/21 03:51:09;;;;;;;;;;;21.20;44.80;;;;;;5145096;27;20390;-57
2022/06/21 03:53:43;;;;;;;;;;;21.00;44.60;;;;;;5164001;27;19929;-58
2022/06/21 03:56:35;;;;;;;;;;;20.90;45.10;;;;;;5150900;27;19982;-58
2022/06/21 03:59:10;;;;;;;;;;;21.40;47.80;;;;;;5157778;27;19955;-55
2022/06/21 04:01:40;;;;;;;;;;;21.90;45.60;;;;;;5163935;27;19933;-55
2022/06/21 04:04:07;;;;;;;;;;;22.00;44.50;;;;;;5167643;27;19949;-55
2022/06/21 04:06:36;;;;;;;;;;;22.10;43.90;;;;;;5162638;27;19926;-54
2022/06/21 04:09:22;;;;;;;;;;;22.20;43.60;;;;;;5163146;27;20042;-55
2022/06/21 04:11:50;;;;;;;;;;;22.30;43.00;;;;;;5150973;27;19930;-55
2022/06/21 04:14:18;;;;;;;;;;;22.30;42.70;;;;;;5144762;27;20051;-57
2022/06/21 04:16:53;;;;;;;;;;;22.30;42.20;;;;;;5145140;27;20308;-56
2022/06/21 04:19:20;;;;;;;;;;;22.40;42.00;;;;;;5169012;27;19923;-54
2022/06/21 04:21:51;;;;;;;;;;;22.40;41.80;;;;;;5162448;27;20338;-57
2022/06/21 04:24:21;;;;;;;;;;;22.50;41.50;;;;;;5143332;27;19927;-58
2022/06/21 04:26:49;;;;;;;;;;;21.40;43.30;;;;;;5168424;27;19926;-57
2022/06/21 04:29:23;;;;;;;;;;;21.20;44.00;;;;;;5144760;27;19929;-56
2022/06/21 04:31:49;;;;;;;;;;;21.50;43.70;;;;;;5144763;27;19966;-57
2022/06/21 04:34:17;;;;;;;;;;;21.60;43.50;;;;;;5168862;27;20041;-58
2022/06/21 04:36:48;;;;;;;;;;;21.60;43.40;;;;;;5163078;27;19929;-57
2022/06/21 04:39:14;;;;;;;;;;;21.70;43.30;;;;;;5149190;27;20017;-57
2022/06/21 04:41:40;;;;;;;;;;;21.60;43.30;;;;;;5161526;27;19923;-58
2022/06/21 04:44:11;;;;;;;;;;;21.70;43.10;;;;;;5162337;27;19929;-57
2022/06/21 04:46:45;;;;;;;;;;;21.80;42.90;;;;;;5149776;27;19923;-59
2022/06/21 04:49:18;;;;;;;;;;;21.80;43.00;;;;;;5163598;27;20006;-59
2022/06/21 04:51:51;;;;;;;;;;;21.80;43.10;;;;;;5144412;27;20388;-57
2022/06/21 04:54:22;;;;;;;;;;;21.80;43.00;;;;;;5149609;27;19974;-58
2022/06/21 04:56:54;;;;;;;;;;;21.80;43.00;;;;;;5163032;27;19927;-58
2022/06/21 04:59:21;;;;;;;;;;;21.70;43.00;;;;;;5161300;27;19923;-57
2022/06/21 05:01:47;;;;;;;;;;;21.80;42.90;;;;;;5148813;27;20025;-59
2022/06/21 05:04:15;;;;;;;;;;;21.80;42.80;;;;;;5162804;27;19926;-58
2022/06/21 05:06:41;;;;;;;;;;;21.80;42.80;;;;;;5162941;27;19933;-58
2022/06/21 05:09:08;;;;;;;;;;;21.80;42.90;;;;;;5168476;27;19957;-59
2022/06/21 05:11:33;;;;;;;;;;;21.80;42.90;;;;;;5144364;27;19966;-58
2022/06/21 05:13:59;;;;;;;;;;;21.90;42.60;;;;;;5168141;27;19934;-57
2022/06/21 05:16:35;;;;;;;;;;;21.90;42.50;;;;;;5162641;27;19929;-58
2022/06/21 05:19:03;;;;;;;;;;;21.90;42.40;;;;;;5125139;27;19975;-59
2022/06/21 05:21:33;;;;;;;;;;;21.80;42.40;;;;;;5149213;27;20366;-59
2022/06/21 05:23:59;;;;;;;;;;;21.80;42.50;;;;;;5162627;27;19926;-58
2022/06/21 05:26:27;;;;;;;;;;;21.80;42.50;;;;;;5163033;27;20007;-59
2022/06/21 05:28:55;;;;;;;;;;;21.80;42.50;;;;;;5149642;27;19926;-60
2022/06/21 05:31:23;;;;;;;;;;;21.80;42.30;;;;;;5144508;27;20374;-57
2022/06/21 05:33:49;;;;;;;;;;;21.80;42.20;;;;;;5144609;27;20630;-58
2022/06/21 05:36:17;;;;;;;;;;;21.90;42.00;;;;;;5147850;27;20388;-59
2022/06/21 05:38:48;;;;;;;;;;;22.00;41.90;;;;;;5143564;27;19945;-60
2022/06/21 05:41:31;;;;;;;;;;;22.00;41.80;;;;;;5165949;27;19930;-59
2022/06/21 05:44:01;;;;;;;;;;;22.00;41.80;;;;;;5168262;27;20374;-60
2022/06/21 05:46:28;;;;;;;;;;;21.90;42.00;;;;;;5162915;27;20079;-59
2022/06/21 05:48:56;;;;;;;;;;;21.90;42.10;;;;;;5168424;27;19923;-57
2022/06/21 05:51:25;;;;;;;;;;;21.90;42.10;;;;;;5164311;27;19926;-60
2022/06/21 05:53:55;;;;;;;;;;;21.90;42.20;;;;;;5161649;27;19923;-57
2022/06/21 05:56:22;;;;;;;;;;;21.80;42.10;;;;;;5166740;27;20489;-59
2022/06/21 05:58:56;;;;;;;;;;;22.00;42.00;;;;;;5162344;27;20010;-58
2022/06/21 06:01:22;;;;;;;;;;;22.00;41.80;;;;;;5127003;27;19922;-59
2022/06/21 06:03:59;;;;;;;;;;;21.90;42.00;;;;;;5168752;27;20430;-59
2022/06/21 06:06:25;;;;;;;;;;;21.90;41.80;;;;;;5167046;27;20390;-60
2022/06/21 06:08:53;;;;;;;;;;;21.90;41.90;;;;;;5166868;27;19938;-59
2022/06/21 06:11:23;;;;;;;;;;;21.90;41.90;;;;;;5152996;27;19994;-58
2022/06/21 06:13:49;;;;;;;;;;;22.00;41.80;;;;;;5164586;27;19926;-58
2022/06/21 06:16:24;;;;;;;;;;;22.00;41.50;;;;;;5147203;27;19930;-59
2022/06/21 06:18:54;;;;;;;;;;;22.00;41.40;;;;;;5171392;27;20013;-60
2022/06/21 06:21:24;;;;;;;;;;;22.00;41.40;;;;;;5166462;27;20366;-59
2022/06/21 06:23:54;;;;;;;;;;;22.00;41.20;;;;;;5170579;27;19923;-58
2022/06/21 06:26:33;;;;;;;;;;;21.60;41.70;;;;;;5171828;27;19984;-59
2022/06/21 06:29:01;;;;;;;;;;;21.30;41.50;;;;;;5132496;27;20401;-58
2022/06/21 06:31:42;;;;;;;;;;;21.30;41.90;;;;;;5170773;27;20309;-58
2022/06/21 06:34:09;;;;;;;;;;;21.50;43.20;;;;;;5171652;27;19941;-58
2022/06/21 06:36:37;;;;;;;;;;;21.70;42.40;;;;;;5168256;27;19923;-58
2022/06/21 06:39:03;;;;;;;;;;;21.80;42.10;;;;;;5153603;27;20013;-59
2022/06/21 06:41:30;;;;;;;;;;;21.80;42.10;;;;;;5147220;27;19931;-58
2022/06/21 06:43:57;;;;;;;;;;;21.80;42.10;;;;;;5149238;27;19975;-58
2022/06/21 06:46:27;;;;;;;;;;;21.80;41.90;;;;;;5171896;27;19923;-58
2022/06/21 06:48:54;;;;;;;;;;;21.90;41.60;;;;;;5167961;27;19929;-58
2022/06/21 06:51:39;;;;;;;;;;;21.90;41.50;;;;;;5147553;27;20029;-55
2022/06/21 06:54:06;;;;;;;;;;;22.00;41.50;;;;;;5171216;27;19929;-56
2022/06/21 06:56:35;;;;;;;;;;;22.00;41.50;;;;;;5167927;27;20285;-57
2022/06/21 06:59:03;;;;;;;;;;;22.00;41.60;;;;;;5129954;27;20333;-56
2022/06/21 07:01:49;;;;;;;;;;;22.10;41.60;;;;;;5171776;27;19927;-58
2022/06/21 07:04:16;;;;;;;;;;;22.10;41.80;;;;;;5168112;27;19971;-57
2022/06/21 07:06:49;;;;;;;;;;;22.10;41.90;;;;;;5149533;27;19934;-56
2022/06/21 07:09:18;;;;;;;;;;;22.10;41.80;;;;;;5169927;27;19922;-56
2022/06/21 07:11:46;;;;;;;;;;;22.20;41.80;;;;;;5167250;27;19922;-54
2022/06/21 07:14:13;;;;;;;;;;;22.10;41.90;;;;;;5149124;27;20434;-54
2022/06/21 07:16:39;;;;;;;;;;;20.50;45.00;;;;;;5169005;27;19956;-55
2022/06/21 07:19:05;;;;;;;;;;;19.90;46.50;;;;;;5147439;27;20344;-57
2022/06/21 07:21:31;;;;;;;;;;;20.80;45.50;;;;;;5170487;27;19942;-55
2022/06/21 07:23:59;;;;;;;;;;;21.30;44.10;;;;;;5165612;27;19926;-55
2022/06/21 07:26:38;;;;;;;;;;;21.70;43.30;;;;;;5163947;27;19927;-55
2022/06/21 07:29:12;;;;;;;;;;;21.70;43.10;;;;;;5169451;27;19922;-56
2022/06/21 07:31:39;;;;;;;;;;;21.80;42.80;;;;;;5146380;27;20005;-55
2022/06/21 07:34:42;;;;;;;;;;;21.90;42.60;;;;;;5146582;27;19923;-56
2022/06/21 07:37:21;;;;;;;;;;;21.90;42.60;;;;;;5064830;28;20329;-57
2022/06/21 07:39:52;;;;;;;;;;;21.90;42.60;;;;;;5137310;27;19926;-55
2022/06/21 07:42:19;;;;;;;;;;;22.00;42.50;;;;;;5165362;27;19966;-55
2022/06/21 07:44:48;;;;;;;;;;;22.00;42.50;;;;;;5149191;27;19931;-53
2022/06/21 07:47:16;;;;;;;;;;;22.00;42.40;;;;;;5164262;27;20429;-56
2022/06/21 07:49:43;;;;;;;;;;;22.10;42.30;;;;;;5164670;27;19922;-56
2022/06/21 07:52:11;;;;;;;;;;;22.10;42.30;;;;;;5169819;27;19922;-55
2022/06/21 07:54:47;;;;;;;;;;;22.20;42.20;;;;;;5160880;27;19922;-56
2022/06/21 07:57:14;;;;;;;;;;;22.10;42.40;;;;;;5146624;27;19923;-57
2022/06/21 07:59:43;;;;;;;;;;;22.10;42.40;;;;;;5149640;27;20017;-56
2022/06/21 08:07:38;;;;;;;;;;;22.10;42.10;;;;;;5169482;27;19929;-51
2022/06/21 08:10:03;;;;;;;;;;;20.90;44.10;;;;;;5164954;27;19923;-49
2022/06/21 08:12:29;;;;;;;;;;;20.10;45.80;;;;;;5165388;27;20155;-50
2022/06/21 08:14:55;;;;;;;;;;;20.30;46.00;;;;;;5169403;27;20351;-52
2022/06/21 08:17:24;;;;;;;;;;;21.30;44.20;;;;;;5165098;27;20404;-51
2022/06/21 08:20:01;;;;;;;;;;;21.60;43.30;;;;;;5150580;27;20330;-52
2022/06/21 08:22:37;;;;;;;;;;;21.80;43.00;;;;;;5146158;27;20010;-52
2022/06/21 08:25:13;;;;;;;;;;;21.80;42.80;;;;;;5164291;27;19978;-51
2022/06/21 08:27:42;;;;;;;;;;;21.90;42.70;;;;;;5147343;27;19929;-53
2022/06/21 08:30:10;;;;;;;;;;;21.90;42.80;;;;;;5166905;27;19923;-52
2022/06/21 08:32:45;;;;;;;;;;;21.50;42.80;;;;;;5164806;27;20025;-52
2022/06/21 08:35:18;;;;;;;;;;;21.50;42.10;;;;;;5168494;27;20228;-54
2022/06/21 08:37:46;;;;;;;;;;;21.50;42.60;;;;;;5127347;27;20013;-52
2022/06/21 08:40:24;;;;;;;;;;;21.70;43.90;;;;;;5162612;27;19929;-47
2022/06/21 08:42:50;;;;;;;;;;;21.80;43.60;;;;;;5169136;27;20346;-49
2022/06/21 08:48:24;;;;;;;;;;;22.00;43.00;;;;;;5165323;27;20076;-49
2022/06/21 08:51:09;;;;;;;;;;;22.00;43.00;;;;;;5150551;27;20368;-50
2022/06/21 08:53:45;;;;;;;;;;;22.10;43.00;;;;;;5150388;27;19927;-52
2022/06/21 08:56:19;;;;;;;;;;;22.10;43.00;;;;;;5163864;27;19933;-56
2022/06/21 08:58:57;;;;;;;;;;;21.60;43.70;;;;;;5161948;27;20005;-57
2022/06/21 09:01:30;;;;;;;;;;;20.00;47.20;;;;;;5167863;27;20125;-49
2022/06/21 09:03:58;;;;;;;;;;;20.30;47.80;;;;;;5162812;27;19922;-48
2022/06/21 09:06:29;;;;;;;;;;;21.20;45.80;;;;;;5166390;27;19929;-58
2022/06/21 09:08:55;;;;;;;;;;;21.50;45.10;;;;;;5167337;27;19929;-48
2022/06/21 09:11:26;;;;;;;;;;;21.80;44.30;;;;;;5162934;27;20293;-49
2022/06/21 09:13:56;;;;;;;;;;;22.00;44.00;;;;;;5149206;27;19938;-50
2022/06/21 09:16:25;;;;;;;;;;;22.00;44.20;;;;;;5142587;27;20021;-48
2022/06/21 09:19:07;;;;;;;;;;;22.00;44.40;;;;;;5142891;27;20409;-50
2022/06/21 09:21:43;;;;;;;;;;;22.00;44.60;;;;;;5149242;27;20131;-51
2022/06/21 09:24:13;;;;;;;;;;;22.00;44.50;;;;;;5144092;27;19931;-49
2022/06/21 09:26:49;;;;;;;;;;;22.10;44.40;;;;;;5162390;27;19927;-49
2022/06/21 09:29:18;;;;;;;;;;;22.20;44.10;;;;;;5150063;27;19933;-51
2022/06/21 09:31:50;;;;;;;;;;;22.10;43.90;;;;;;5163189;27;19974;-47
2022/06/21 09:34:39;;;;;;;;;;;20.70;46.70;;;;;;5141214;27;20160;-49
2022/06/21 09:37:23;;;;;;;;;;;20.00;48.50;;;;;;5117153;27;19953;-49
2022/06/21 09:39:52;;;;;;;;;;;21.10;46.70;;;;;;5168480;27;19927;-51
2022/06/21 09:42:32;;;;;;;;;;;21.70;45.30;;;;;;5148949;27;19930;-51
2022/06/21 09:45:16;;;;;;;;;;;21.90;44.60;;;;;;5172336;27;19927;-55
2022/06/21 09:47:51;;;;;;;;;;;22.00;44.50;;;;;;5153892;27;19945;-50
2022/06/21 09:50:19;;;;;;;;;;;22.00;44.50;;;;;;5148671;27;19930;-53
2022/06/21 09:52:49;;;;;;;;;;;22.00;44.50;;;;;;5171038;27;19945;-52
2022/06/21 09:55:17;;;;;;;;;;;22.10;44.40;;;;;;5167192;27;19936;-51
2022/06/21 09:58:02;;;;;;;;;;;22.10;44.30;;;;;;5147564;27;20018;-53
2022/06/21 10:00:33;;;;;;;;;;;22.20;44.40;;;;;;5171636;27;19931;-47
2022/06/21 10:03:21;;;;;;;;;;;21.30;46.60;;;;;;5167995;27;20354;-52
2022/06/21 10:05:54;;;;;;;;;;;20.30;49.20;;;;;;5148557;27;19926;-50
2022/06/21 10:08:25;;;;;;;;;;;20.30;50.30;;;;;;5150945;27;19988;-54
2022/06/21 10:11:12;;;;;;;;;;;21.20;48.50;;;;;;5170209;27;20013;-52
2022/06/21 10:14:00;;;;;;;;;;;21.60;47.30;;;;;;5144776;27;20006;-48
2022/06/21 10:16:31;;;;;;;;;;;21.80;46.60;;;;;;5130033;27;20022;-48
2022/06/21 10:19:06;;;;;;;;;;;22.00;46.30;;;;;;5171198;27;19970;-51
2022/06/21 10:21:45;;;;;;;;;;;22.00;46.10;;;;;;5147567;27;19959;-48
2022/06/21 10:24:14;;;;;;;;;;;22.10;45.90;;;;;;5166349;27;19922;-51
2022/06/21 10:26:53;;;;;;;;;;;22.10;45.90;;;;;;5171299;27;20403;-49
2022/06/21 10:29:37;;;;;;;;;;;22.20;45.80;;;;;;5165028;27;19926;-48
2022/06/21 10:32:12;;;;;;;;;;;22.30;45.60;;;;;;5164690;27;19927;-52
2022/06/21 10:35:00;;;;;;;;;;;21.40;47.50;;;;;;5171062;27;19922;-49
2022/06/21 10:37:30;;;;;;;;;;;20.50;50.30;;;;;;5165674;27;19999;-47
2022/06/21 10:39:59;;;;;;;;;;;21.10;46.90;;;;;;5145560;27;20290;-47
2022/06/21 10:42:48;;;;;;;;;;;21.30;45.30;;;;;;5171198;27;19930;-46
2022/06/21 10:45:19;;;;;;;;;;;21.60;47.30;;;;;;5148992;27;20370;-48
2022/06/21 10:47:52;;;;;;;;;;;21.80;48.30;;;;;;5145281;27;19935;-47
2022/06/21 10:50:31;;;;;;;;;;;22.10;47.60;;;;;;5150306;27;19982;-48
2022/06/21 10:53:16;;;;;;;;;;;22.10;47.50;;;;;;5164835;27;19935;-50
2022/06/21 10:55:49;;;;;;;;;;;22.10;47.40;;;;;;5165085;27;19929;-49
2022/06/21 10:58:14;;;;;;;;;;;22.20;47.20;;;;;;5170591;27;20356;-49
2022/06/21 11:03:33;;;;;;;;;;;22.30;47.40;;;;;;5163060;27;20402;-56
2022/06/21 11:06:18;;;;;;;;;;;21.10;50.40;;;;;;5169520;27;19926;-55
2022/06/21 11:08:56;;;;;;;;;;;20.30;52.30;;;;;;5163782;27;19929;-55
2022/06/21 11:11:40;;;;;;;;;;;20.20;52.90;;;;;;5164203;27;19929;-49
2022/06/21 11:14:10;;;;;;;;;;;21.00;53.70;;;;;;5168779;27;19923;-56
2022/06/21 11:16:38;;;;;;;;;;;21.60;52.00;;;;;;5149156;27;19923;-49
2022/06/21 11:19:10;;;;;;;;;;;22.00;50.20;;;;;;5164742;27;19927;-47
2022/06/21 11:21:42;;;;;;;;;;;22.10;49.80;;;;;;5169845;27;20514;-46
2022/06/21 11:24:11;;;;;;;;;;;22.20;49.30;;;;;;5144631;27;20292;-50
2022/06/21 11:27:00;;;;;;;;;;;22.30;49.30;;;;;;5162788;27;19980;-46
2022/06/21 11:29:29;;;;;;;;;;;22.30;49.50;;;;;;5169469;27;20431;-46
2022/06/21 11:31:56;;;;;;;;;;;22.30;49.40;;;;;;5145532;27;20275;-50
2022/06/21 11:34:44;;;;;;;;;;;22.30;49.80;;;;;;5145761;27;19945;-55
2022/06/21 11:37:14;;;;;;;;;;;21.00;52.40;;;;;;5170155;27;20355;-53
2022/06/21 11:40:09;;;;;;;;;;;20.30;54.00;;;;;;5164127;27;19923;-48
2022/06/21 11:42:50;;;;;;;;;;;20.20;54.40;;;;;;5066325;27;19931;-46
2022/06/21 11:45:35;;;;;;;;;;;21.00;55.70;;;;;;5144122;27;19938;-45
2022/06/21 11:48:12;;;;;;;;;;;21.50;54.20;;;;;;5169259;27;20047;-49
2022/06/21 11:50:56;;;;;;;;;;;21.80;52.90;;;;;;5145121;27;20037;-48
2022/06/21 11:53:25;;;;;;;;;;;21.90;52.40;;;;;;5163972;27;19931;-48
2022/06/21 11:55:54;;;;;;;;;;;22.00;52.10;;;;;;5169609;27;19927;-47
2022/06/21 11:58:25;;;;;;;;;;;22.20;51.80;;;;;;5163933;27;20350;-49
2022/06/21 12:00:52;;;;;;;;;;;22.20;51.40;;;;;;5163220;27;20021;-49
2022/06/21 12:03:36;;;;;;;;;;;22.30;51.30;;;;;;5167008;27;20267;-50
2022/06/21 12:06:07;;;;;;;;;;;22.30;51.20;;;;;;5163838;27;20285;-47
2022/06/21 12:08:41;;;;;;;;;;;21.60;52.60;;;;;;5145008;27;19933;-54
2022/06/21 12:11:33;;;;;;;;;;;20.70;55.30;;;;;;5149700;27;19927;-49
2022/06/21 12:14:13;;;;;;;;;;;20.50;55.70;;;;;;5144963;27;19933;-51
2022/06/21 12:16:51;;;;;;;;;;;20.30;55.80;;;;;;5144125;27;19927;-46
2022/06/21 12:19:24;;;;;;;;;;;20.80;58.30;;;;;;5167896;27;20297;-52
2022/06/21 12:22:06;;;;;;;;;;;22.10;56.90;;;;;;5124046;27;19942;-47
2022/06/21 12:24:33;;;;;;;;;;;21.80;55.50;;;;;;5144172;27;19974;-52
2022/06/21 12:26:59;;;;;;;;;;;21.30;55.50;;;;;;5168490;27;20422;-52
2022/06/21 12:29:25;;;;;;;;;;;21.40;55.00;;;;;;5163463;27;19923;-46
2022/06/21 12:31:52;;;;;;;;;;;21.20;55.60;;;;;;5163343;27;19962;-49
2022/06/21 12:34:23;;;;;;;;;;;21.20;55.40;;;;;;5150132;27;20370;-46
2022/06/21 12:37:03;;;;;;;;;;;21.20;55.40;;;;;;5163370;27;19984;-48
2022/06/21 12:39:47;;;;;;;;;;;21.20;55.60;;;;;;5141808;27;19954;-50
2022/06/21 12:42:19;;;;;;;;;;;21.20;55.40;;;;;;5167945;27;19930;-48
2022/06/21 12:45:00;;;;;;;;;;;21.10;55.60;;;;;;5144005;27;19923;-48
2022/06/21 12:47:26;;;;;;;;;;;21.10;55.70;;;;;;5163080;27;20018;-47
2022/06/21 12:50:04;;;;;;;;;;;21.10;55.90;;;;;;5148310;27;20344;-49
2022/06/21 12:52:56;;;;;;;;;;;21.20;55.70;;;;;;5162996;27;19929;-52
2022/06/21 12:55:22;;;;;;;;;;;21.20;55.60;;;;;;5122511;27;19935;-48
2022/06/21 12:58:02;;;;;;;;;;;21.10;55.80;;;;;;5165985;27;20421;-51
2022/06/21 13:00:47;;;;;;;;;;;21.20;55.50;;;;;;5143392;27;19923;-48
2022/06/21 13:03:20;;;;;;;;;;;21.20;55.70;;;;;;5162280;27;20318;-46
2022/06/21 13:05:53;;;;;;;;;;;21.00;56.30;;;;;;5149251;27;19927;-48
2022/06/21 13:08:25;;;;;;;;;;;21.20;56.00;;;;;;5144188;27;20329;-47
2022/06/21 13:11:03;;;;;;;;;;;21.40;56.00;;;;;;5163143;27;19931;-46
2022/06/21 13:13:29;;;;;;;;;;;21.20;56.60;;;;;;5167319;27;19974;-49
2022/06/21 13:16:04;;;;;;;;;;;21.30;56.20;;;;;;5160655;27;19930;-48
2022/06/21 13:18:34;;;;;;;;;;;21.30;56.60;;;;;;5161656;27;20438;-47
2022/06/21 13:21:12;;;;;;;;;;;21.20;56.60;;;;;;5167810;27;19926;-48
2022/06/21 13:23:41;;;;;;;;;;;21.20;56.60;;;;;;5162542;27;19975;-48
2022/06/21 13:26:26;;;;;;;;;;;21.30;56.60;;;;;;5162486;27;20337;-47
2022/06/21 13:28:58;;;;;;;;;;;21.30;56.40;;;;;;5168202;27;19923;-49
2022/06/21 13:31:45;;;;;;;;;;;21.30;56.80;;;;;;5144259;27;20477;-51
2022/06/21 13:34:34;;;;;;;;;;;21.10;57.00;;;;;;5160064;27;20220;-50
2022/06/21 13:37:05;;;;;;;;;;;21.30;56.60;;;;;;5117895;27;19933;-49
2022/06/21 13:39:35;;;;;;;;;;;21.20;56.90;;;;;;5162144;27;20018;-51
2022/06/21 13:44:48;;;;;;;;;;;21.40;56.60;;;;;;5165956;27;19926;-46
2022/06/21 13:47:20;;;;;;;;;;;21.30;57.00;;;;;;5144004;27;20009;-47
2022/06/21 13:49:47;;;;;;;;;;;21.30;57.00;;;;;;5143607;27;20362;-47
2022/06/21 13:52:26;;;;;;;;;;;21.30;56.70;;;;;;5145553;27;19927;-50
2022/06/21 13:55:01;;;;;;;;;;;21.40;56.30;;;;;;5161371;27;19926;-47
2022/06/21 13:57:42;;;;;;;;;;;21.30;56.60;;;;;;5161752;27;20333;-47
2022/06/21 14:00:08;;;;;;;;;;;21.50;56.80;;;;;;5167634;27;20001;-47
2022/06/21 14:02:49;;;;;;;;;;;21.70;56.30;;;;;;5162159;27;19926;-49
2022/06/21 14:05:31;;;;;;;;;;;21.40;57.20;;;;;;5162748;27;19929;-46
2022/06/21 14:07:59;;;;;;;;;;;21.40;57.20;;;;;;5145193;27;19927;-49
2022/06/21 14:10:25;;;;;;;;;;;21.50;56.90;;;;;;5160531;27;19926;-47
2022/06/21 14:12:52;;;;;;;;;;;21.30;57.50;;;;;;5160748;27;19960;-48
2022/06/21 14:15:20;;;;;;;;;;;21.30;57.40;;;;;;5166898;27;20006;-50
2022/06/21 14:17:49;;;;;;;;;;;21.40;57.00;;;;;;5162317;27;19926;-46
2022/06/21 14:20:20;;;;;;;;;;;21.50;56.90;;;;;;5141801;27;20428;-47
2022/06/21 14:22:51;;;;;;;;;;;21.50;56.90;;;;;;5149279;27;19923;-47
2022/06/21 14:25:26;;;;;;;;;;;21.40;57.20;;;;;;5163434;27;20109;-49
2022/06/21 14:27:53;;;;;;;;;;;21.40;57.30;;;;;;5165137;27;19970;-47
2022/06/21 14:30:39;;;;;;;;;;;21.60;56.90;;;;;;5169376;27;19924;-46
2022/06/21 14:33:10;;;;;;;;;;;21.70;56.70;;;;;;5147195;27;19923;-49
2022/06/21 14:35:49;;;;;;;;;;;21.70;56.60;;;;;;5165365;27;19923;-46
2022/06/21 14:38:14;;;;;;;;;;;21.60;57.00;;;;;;5171308;27;19923;-45
2022/06/21 14:40:42;;;;;;;;;;;21.60;56.90;;;;;;5165755;27;19946;-51
2022/06/21 14:43:13;;;;;;;;;;;21.40;57.40;;;;;;5150920;27;19923;-55
2022/06/21 14:45:43;;;;;;;;;;;21.60;57.00;;;;;;5150398;27;20457;-47
2022/06/21 14:48:12;;;;;;;;;;;21.60;57.10;;;;;;5163284;27;19926;-47
2022/06/21 14:50:40;;;;;;;;;;;21.60;57.00;;;;;;5151525;27;19933;-49
2022/06/21 14:53:10;;;;;;;;;;;21.70;57.00;;;;;;5146193;27;19923;-48
2022/06/21 14:55:35;;;;;;;;;;;21.70;57.00;;;;;;5165163;27;19929;-49
2022/06/21 14:58:05;;;;;;;;;;;21.70;57.10;;;;;;5170560;27;19926;-45